sensor_id;sensor_type;location;lat;lon;timestamp;temperature;humidity
44894;DHT22;30625;52.206;21.030;2024-01-30T00:02:19;1.50;99.90
44894;DHT22;30625;52.206;21.030;2024-01-30T00:04:45;1.40;99.90
44894;DHT22;30625;52.206;21.030;2024-01-30T00:07:10;1.40;99.90
44894;DHT22;30625;52.206;21.030;2024-01-30T00:09:38;1.40;99.90
44894;DHT22;30625;52.206;21.030;2024-01-30T00:12:04;1.40;99.90
44894;DHT22;30625;52.206;21.030;2024-01-30T00:14:30;1.30;99.90
44894;DHT22;30625;52.206;21.030;2024-01-30T00:16:55;1.30;99.90
44894;DHT22;30625;52.206;21.030;2024-01-30T00:19:21;1.40;99.90
44894;DHT22;30625;52.206;21.030;2024-01-30T00:21:46;1.40;99.90
44894;DHT22;30625;52.206;21.030;2024-01-30T00:24:12;1.40;99.90
44894;DHT22;30625;52.206;21.030;2024-01-30T00:26:37;1.50;99.90
44894;DHT22;30625;52.206;21.030;2024-01-30T00:29:03;1.40;99.90
44894;DHT22;30625;52.206;21.030;2024-01-30T00:31:29;1.40;99.90
44894;DHT22;30625;52.206;21.030;2024-01-30T00:33:54;1.40;99.90
44894;DHT22;30625;52.206;21.030;2024-01-30T00:36:20;1.40;99.90
44894;DHT22;30625;52.206;21.030;2024-01-30T00:38:46;1.40;99.90
44894;DHT22;30625;52.206;21.030;2024-01-30T00:41:11;1.40;99.90
44894;DHT22;30625;52.206;21.030;2024-01-30T00:43:38;1.30;99.90
44894;DHT22;30625;52.206;21.030;2024-01-30T00:46:04;1.30;99.90
44894;DHT22;30625;52.206;21.030;2024-01-30T00:48:31;1.40;99.90
44894;DHT22;30625;52.206;21.030;2024-01-30T00:50:56;1.20;99.90
44894;DHT22;30625;52.206;21.030;2024-01-30T00:53:22;1.20;99.90
44894;DHT22;30625;52.206;21.030;2024-01-30T00:55:47;1.20;99.90
44894;DHT22;30625;52.206;21.030;2024-01-30T00:58:13;1.20;99.90
44894;DHT22;30625;52.206;21.030;2024-01-30T01:00:39;1.20;99.90
44894;DHT22;30625;52.206;21.030;2024-01-30T01:03:04;1.30;99.90
44894;DHT22;30625;52.206;21.030;2024-01-30T01:05:30;1.30;99.90
44894;DHT22;30625;52.206;21.030;2024-01-30T01:07:55;1.30;99.90
44894;DHT22;30625;52.206;21.030;2024-01-30T01:10:21;1.40;99.90
44894;DHT22;30625;52.206;21.030;2024-01-30T01:12:47;1.40;99.90
44894;DHT22;30625;52.206;21.030;2024-01-30T01:15:13;1.40;99.90
44894;DHT22;30625;52.206;21.030;2024-01-30T01:17:39;1.40;99.90
44894;DHT22;30625;52.206;21.030;2024-01-30T01:20:05;1.40;99.90
44894;DHT22;30625;52.206;21.030;2024-01-30T01:22:31;1.40;99.90
44894;DHT22;30625;52.206;21.030;2024-01-30T01:24:58;1.40;99.90
44894;DHT22;30625;52.206;21.030;2024-01-30T01:27:23;1.50;99.90
44894;DHT22;30625;52.206;21.030;2024-01-30T01:29:49;1.50;99.90
44894;DHT22;30625;52.206;21.030;2024-01-30T01:32:14;1.50;99.90
44894;DHT22;30625;52.206;21.030;2024-01-30T01:34:40;1.40;99.90
44894;DHT22;30625;52.206;21.030;2024-01-30T01:37:05;1.40;99.90
44894;DHT22;30625;52.206;21.030;2024-01-30T01:39:31;1.40;99.90
44894;DHT22;30625;52.206;21.030;2024-01-30T01:41:56;1.30;99.90
44894;DHT22;30625;52.206;21.030;2024-01-30T01:44:22;1.30;99.90
44894;DHT22;30625;52.206;21.030;2024-01-30T01:46:47;1.30;99.90
44894;DHT22;30625;52.206;21.030;2024-01-30T01:49:13;1.20;99.90
44894;DHT22;30625;52.206;21.030;2024-01-30T01:51:39;1.20;99.90
44894;DHT22;30625;52.206;21.030;2024-01-30T01:54:06;1.20;99.90
44894;DHT22;30625;52.206;21.030;2024-01-30T01:56:32;1.20;99.90
44894;DHT22;30625;52.206;21.030;2024-01-30T01:58:59;1.20;99.90
44894;DHT22;30625;52.206;21.030;2024-01-30T02:01:25;1.20;99.90
44894;DHT22;30625;52.206;21.030;2024-01-30T02:03:52;1.10;99.90
44894;DHT22;30625;52.206;21.030;2024-01-30T02:06:18;1.10;99.90
44894;DHT22;30625;52.206;21.030;2024-01-30T02:08:44;1.30;99.90
44894;DHT22;30625;52.206;21.030;2024-01-30T02:11:09;1.20;99.90
44894;DHT22;30625;52.206;21.030;2024-01-30T02:13:35;0.90;99.90
44894;DHT22;30625;52.206;21.030;2024-01-30T02:16:01;0.90;99.90
44894;DHT22;30625;52.206;21.030;2024-01-30T02:18:26;1.00;99.90
44894;DHT22;30625;52.206;21.030;2024-01-30T02:20:53;1.00;99.90
44894;DHT22;30625;52.206;21.030;2024-01-30T02:23:19;1.10;99.90
44894;DHT22;30625;52.206;21.030;2024-01-30T02:25:45;1.00;99.90
44894;DHT22;30625;52.206;21.030;2024-01-30T02:28:11;1.20;99.90
44894;DHT22;30625;52.206;21.030;2024-01-30T02:30:37;1.00;99.90
44894;DHT22;30625;52.206;21.030;2024-01-30T02:33:06;1.00;99.90
44894;DHT22;30625;52.206;21.030;2024-01-30T02:35:31;0.90;99.90
44894;DHT22;30625;52.206;21.030;2024-01-30T02:37:59;0.80;99.90
44894;DHT22;30625;52.206;21.030;2024-01-30T02:40:28;0.80;99.90
44894;DHT22;30625;52.206;21.030;2024-01-30T02:42:54;0.90;99.90
44894;DHT22;30625;52.206;21.030;2024-01-30T02:45:21;0.90;99.90
44894;DHT22;30625;52.206;21.030;2024-01-30T02:47:46;0.80;99.90
44894;DHT22;30625;52.206;21.030;2024-01-30T02:50:12;0.90;99.90
44894;DHT22;30625;52.206;21.030;2024-01-30T02:52:37;0.90;99.90
44894;DHT22;30625;52.206;21.030;2024-01-30T02:55:03;0.90;99.90
44894;DHT22;30625;52.206;21.030;2024-01-30T02:57:28;0.90;99.90
44894;DHT22;30625;52.206;21.030;2024-01-30T02:59:54;0.90;99.90
44894;DHT22;30625;52.206;21.030;2024-01-30T03:02:19;0.90;99.90
44894;DHT22;30625;52.206;21.030;2024-01-30T03:04:46;0.90;99.90
44894;DHT22;30625;52.206;21.030;2024-01-30T03:07:12;0.90;99.90
44894;DHT22;30625;52.206;21.030;2024-01-30T03:09:38;0.90;99.90
44894;DHT22;30625;52.206;21.030;2024-01-30T03:12:04;1.10;99.90
44894;DHT22;30625;52.206;21.030;2024-01-30T03:14:32;0.90;99.90
44894;DHT22;30625;52.206;21.030;2024-01-30T03:16:58;0.90;99.90
44894;DHT22;30625;52.206;21.030;2024-01-30T03:19:23;0.90;99.90
44894;DHT22;30625;52.206;21.030;2024-01-30T03:21:49;0.90;99.90
44894;DHT22;30625;52.206;21.030;2024-01-30T03:24:15;0.80;99.90
44894;DHT22;30625;52.206;21.030;2024-01-30T03:26:42;0.80;99.90
44894;DHT22;30625;52.206;21.030;2024-01-30T03:29:08;0.90;99.90
44894;DHT22;30625;52.206;21.030;2024-01-30T03:31:34;0.90;99.90
44894;DHT22;30625;52.206;21.030;2024-01-30T03:34:00;0.90;99.90
44894;DHT22;30625;52.206;21.030;2024-01-30T03:36:25;0.90;99.90
44894;DHT22;30625;52.206;21.030;2024-01-30T03:38:51;0.80;99.90
44894;DHT22;30625;52.206;21.030;2024-01-30T03:41:17;0.80;99.90
44894;DHT22;30625;52.206;21.030;2024-01-30T03:43:42;0.90;99.90
44894;DHT22;30625;52.206;21.030;2024-01-30T03:46:08;0.80;99.90
44894;DHT22;30625;52.206;21.030;2024-01-30T03:48:33;0.80;99.90
44894;DHT22;30625;52.206;21.030;2024-01-30T03:50:59;0.80;99.90
44894;DHT22;30625;52.206;21.030;2024-01-30T03:53:24;0.80;99.90
44894;DHT22;30625;52.206;21.030;2024-01-30T03:55:50;0.70;99.90
44894;DHT22;30625;52.206;21.030;2024-01-30T03:58:15;0.70;99.90
44894;DHT22;30625;52.206;21.030;2024-01-30T04:00:41;0.80;99.90
44894;DHT22;30625;52.206;21.030;2024-01-30T04:03:07;0.80;99.90
44894;DHT22;30625;52.206;21.030;2024-01-30T04:05:32;0.80;99.90
44894;DHT22;30625;52.206;21.030;2024-01-30T04:07:58;0.80;99.90
44894;DHT22;30625;52.206;21.030;2024-01-30T04:10:24;0.70;99.90
44894;DHT22;30625;52.206;21.030;2024-01-30T04:12:50;0.80;99.90
44894;DHT22;30625;52.206;21.030;2024-01-30T04:15:17;0.80;99.90
44894;DHT22;30625;52.206;21.030;2024-01-30T04:17:42;0.80;99.90
44894;DHT22;30625;52.206;21.030;2024-01-30T04:20:13;0.80;99.90
44894;DHT22;30625;52.206;21.030;2024-01-30T04:22:38;0.80;99.90
44894;DHT22;30625;52.206;21.030;2024-01-30T04:25:04;0.80;99.90
44894;DHT22;30625;52.206;21.030;2024-01-30T04:27:29;0.70;99.90
44894;DHT22;30625;52.206;21.030;2024-01-30T04:29:55;0.70;99.90
44894;DHT22;30625;52.206;21.030;2024-01-30T04:32:20;0.80;99.90
44894;DHT22;30625;52.206;21.030;2024-01-30T04:34:46;0.80;99.90
44894;DHT22;30625;52.206;21.030;2024-01-30T04:37:11;0.70;99.90
44894;DHT22;30625;52.206;21.030;2024-01-30T04:39:37;0.80;99.90
44894;DHT22;30625;52.206;21.030;2024-01-30T04:42:03;0.80;99.90
44894;DHT22;30625;52.206;21.030;2024-01-30T04:44:28;0.80;99.90
44894;DHT22;30625;52.206;21.030;2024-01-30T04:46:54;0.80;99.90
44894;DHT22;30625;52.206;21.030;2024-01-30T04:49:24;0.70;99.90
44894;DHT22;30625;52.206;21.030;2024-01-30T04:51:50;0.80;99.90
44894;DHT22;30625;52.206;21.030;2024-01-30T04:54:15;0.80;99.90
44894;DHT22;30625;52.206;21.030;2024-01-30T04:56:41;0.80;99.90
44894;DHT22;30625;52.206;21.030;2024-01-30T04:59:06;0.80;99.90
44894;DHT22;30625;52.206;21.030;2024-01-30T05:01:33;0.80;99.90
44894;DHT22;30625;52.206;21.030;2024-01-30T05:03:59;0.80;99.90
44894;DHT22;30625;52.206;21.030;2024-01-30T05:06:29;0.90;99.90
44894;DHT22;30625;52.206;21.030;2024-01-30T05:08:55;0.80;99.90
44894;DHT22;30625;52.206;21.030;2024-01-30T05:11:21;0.80;99.90
44894;DHT22;30625;52.206;21.030;2024-01-30T05:13:46;0.70;99.90
44894;DHT22;30625;52.206;21.030;2024-01-30T05:16:16;0.80;99.90
44894;DHT22;30625;52.206;21.030;2024-01-30T05:18:41;0.70;99.90
44894;DHT22;30625;52.206;21.030;2024-01-30T05:21:07;0.80;99.90
44894;DHT22;30625;52.206;21.030;2024-01-30T05:23:33;0.70;99.90
44894;DHT22;30625;52.206;21.030;2024-01-30T05:25:59;0.70;99.90
44894;DHT22;30625;52.206;21.030;2024-01-30T05:28:26;0.70;99.90
44894;DHT22;30625;52.206;21.030;2024-01-30T05:30:51;0.60;99.90
44894;DHT22;30625;52.206;21.030;2024-01-30T05:33:17;0.70;99.90
44894;DHT22;30625;52.206;21.030;2024-01-30T05:35:42;0.60;99.90
44894;DHT22;30625;52.206;21.030;2024-01-30T05:38:08;0.70;99.90
44894;DHT22;30625;52.206;21.030;2024-01-30T05:40:33;0.60;99.90
44894;DHT22;30625;52.206;21.030;2024-01-30T05:42:59;0.80;99.90
44894;DHT22;30625;52.206;21.030;2024-01-30T05:45:26;0.70;99.90
44894;DHT22;30625;52.206;21.030;2024-01-30T05:47:52;0.70;99.90
44894;DHT22;30625;52.206;21.030;2024-01-30T05:50:19;0.70;99.90
44894;DHT22;30625;52.206;21.030;2024-01-30T05:52:44;0.80;99.90
44894;DHT22;30625;52.206;21.030;2024-01-30T05:55:10;0.70;99.90
44894;DHT22;30625;52.206;21.030;2024-01-30T05:57:37;0.80;99.90
44894;DHT22;30625;52.206;21.030;2024-01-30T06:00:04;0.80;99.90
44894;DHT22;30625;52.206;21.030;2024-01-30T06:02:30;0.80;99.90
44894;DHT22;30625;52.206;21.030;2024-01-30T06:04:56;0.90;99.90
44894;DHT22;30625;52.206;21.030;2024-01-30T06:07:21;0.80;99.90
44894;DHT22;30625;52.206;21.030;2024-01-30T06:09:47;0.80;99.90
44894;DHT22;30625;52.206;21.030;2024-01-30T06:12:13;0.80;99.90
44894;DHT22;30625;52.206;21.030;2024-01-30T06:14:39;0.80;99.90
44894;DHT22;30625;52.206;21.030;2024-01-30T06:17:04;0.80;99.90
44894;DHT22;30625;52.206;21.030;2024-01-30T06:19:30;0.80;99.90
44894;DHT22;30625;52.206;21.030;2024-01-30T06:21:56;0.80;99.90
44894;DHT22;30625;52.206;21.030;2024-01-30T06:24:21;0.90;99.90
44894;DHT22;30625;52.206;21.030;2024-01-30T06:26:47;0.90;99.90
44894;DHT22;30625;52.206;21.030;2024-01-30T06:29:12;1.10;99.90
44894;DHT22;30625;52.206;21.030;2024-01-30T06:31:40;0.90;99.90
44894;DHT22;30625;52.206;21.030;2024-01-30T06:34:07;0.80;99.90
44894;DHT22;30625;52.206;21.030;2024-01-30T06:36:32;0.80;99.90
44894;DHT22;30625;52.206;21.030;2024-01-30T06:38:58;0.90;99.90
44894;DHT22;30625;52.206;21.030;2024-01-30T06:41:23;0.80;99.90
44894;DHT22;30625;52.206;21.030;2024-01-30T06:43:49;0.80;99.90
44894;DHT22;30625;52.206;21.030;2024-01-30T06:46:15;0.90;99.90
44894;DHT22;30625;52.206;21.030;2024-01-30T06:48:41;0.90;99.90
44894;DHT22;30625;52.206;21.030;2024-01-30T06:51:06;0.90;99.90
44894;DHT22;30625;52.206;21.030;2024-01-30T06:53:32;0.90;99.90
44894;DHT22;30625;52.206;21.030;2024-01-30T06:55:57;0.90;99.90
44894;DHT22;30625;52.206;21.030;2024-01-30T06:58:24;1.00;99.90
44894;DHT22;30625;52.206;21.030;2024-01-30T07:00:49;1.10;99.90
44894;DHT22;30625;52.206;21.030;2024-01-30T07:03:15;1.10;99.90
44894;DHT22;30625;52.206;21.030;2024-01-30T07:05:40;1.10;99.90
44894;DHT22;30625;52.206;21.030;2024-01-30T07:08:06;1.20;99.90
44894;DHT22;30625;52.206;21.030;2024-01-30T07:10:31;1.20;99.90
44894;DHT22;30625;52.206;21.030;2024-01-30T07:12:57;1.20;99.90
44894;DHT22;30625;52.206;21.030;2024-01-30T07:15:23;1.30;99.90
44894;DHT22;30625;52.206;21.030;2024-01-30T07:17:49;1.30;99.90
44894;DHT22;30625;52.206;21.030;2024-01-30T07:20:14;1.40;99.90
44894;DHT22;30625;52.206;21.030;2024-01-30T07:22:40;1.40;99.90
44894;DHT22;30625;52.206;21.030;2024-01-30T07:25:06;1.50;99.90
44894;DHT22;30625;52.206;21.030;2024-01-30T07:27:32;1.50;99.90
44894;DHT22;30625;52.206;21.030;2024-01-30T07:29:57;1.60;99.90
44894;DHT22;30625;52.206;21.030;2024-01-30T07:32:23;1.60;99.90
44894;DHT22;30625;52.206;21.030;2024-01-30T07:34:49;1.60;99.90
44894;DHT22;30625;52.206;21.030;2024-01-30T07:37:14;1.70;99.90
44894;DHT22;30625;52.206;21.030;2024-01-30T07:39:41;1.80;99.90
44894;DHT22;30625;52.206;21.030;2024-01-30T07:42:07;1.80;99.90
44894;DHT22;30625;52.206;21.030;2024-01-30T07:44:32;2.00;99.90
44894;DHT22;30625;52.206;21.030;2024-01-30T07:46:58;2.00;99.90
44894;DHT22;30625;52.206;21.030;2024-01-30T07:49:24;2.00;99.90
44894;DHT22;30625;52.206;21.030;2024-01-30T07:51:50;2.00;99.90
44894;DHT22;30625;52.206;21.030;2024-01-30T07:54:16;2.20;99.90
44894;DHT22;30625;52.206;21.030;2024-01-30T07:56:44;2.30;99.90
44894;DHT22;30625;52.206;21.030;2024-01-30T07:59:10;2.40;99.90
44894;DHT22;30625;52.206;21.030;2024-01-30T08:01:36;2.50;99.90
44894;DHT22;30625;52.206;21.030;2024-01-30T08:04:02;2.50;99.90
44894;DHT22;30625;52.206;21.030;2024-01-30T08:06:28;2.60;99.90
44894;DHT22;30625;52.206;21.030;2024-01-30T08:08:53;2.70;99.90
44894;DHT22;30625;52.206;21.030;2024-01-30T08:11:20;2.70;99.90
44894;DHT22;30625;52.206;21.030;2024-01-30T08:13:54;2.90;99.90
44894;DHT22;30625;52.206;21.030;2024-01-30T08:16:21;3.10;99.90
44894;DHT22;30625;52.206;21.030;2024-01-30T08:18:46;3.30;99.90
44894;DHT22;30625;52.206;21.030;2024-01-30T08:21:12;3.70;99.90
44894;DHT22;30625;52.206;21.030;2024-01-30T08:23:39;3.50;99.90
44894;DHT22;30625;52.206;21.030;2024-01-30T08:26:05;3.60;99.90
44894;DHT22;30625;52.206;21.030;2024-01-30T08:28:31;3.70;99.90
44894;DHT22;30625;52.206;21.030;2024-01-30T08:30:56;3.70;99.90
44894;DHT22;30625;52.206;21.030;2024-01-30T08:33:23;3.90;99.90
44894;DHT22;30625;52.206;21.030;2024-01-30T08:35:48;3.80;99.90
44894;DHT22;30625;52.206;21.030;2024-01-30T08:38:14;3.90;99.90
44894;DHT22;30625;52.206;21.030;2024-01-30T08:40:39;3.90;99.90
44894;DHT22;30625;52.206;21.030;2024-01-30T08:43:05;4.00;99.90
44894;DHT22;30625;52.206;21.030;2024-01-30T08:45:30;4.10;99.90
44894;DHT22;30625;52.206;21.030;2024-01-30T08:47:56;4.30;99.90
44894;DHT22;30625;52.206;21.030;2024-01-30T08:50:22;4.40;99.90
44894;DHT22;30625;52.206;21.030;2024-01-30T08:52:47;4.60;99.90
44894;DHT22;30625;52.206;21.030;2024-01-30T08:55:13;4.70;99.90
44894;DHT22;30625;52.206;21.030;2024-01-30T08:57:38;4.70;99.90
44894;DHT22;30625;52.206;21.030;2024-01-30T09:00:04;4.70;99.90
44894;DHT22;30625;52.206;21.030;2024-01-30T09:02:32;4.80;99.90
44894;DHT22;30625;52.206;21.030;2024-01-30T09:04:57;5.00;99.90
44894;DHT22;30625;52.206;21.030;2024-01-30T09:07:23;5.10;99.90
44894;DHT22;30625;52.206;21.030;2024-01-30T09:09:49;5.10;99.90
44894;DHT22;30625;52.206;21.030;2024-01-30T09:12:17;5.20;99.90
44894;DHT22;30625;52.206;21.030;2024-01-30T09:14:43;5.40;99.90
44894;DHT22;30625;52.206;21.030;2024-01-30T09:17:08;5.60;99.90
44894;DHT22;30625;52.206;21.030;2024-01-30T09:19:34;5.80;99.90
44894;DHT22;30625;52.206;21.030;2024-01-30T09:22:00;5.90;99.90
44894;DHT22;30625;52.206;21.030;2024-01-30T09:24:26;6.10;99.90
44894;DHT22;30625;52.206;21.030;2024-01-30T09:26:52;6.40;99.60
44894;DHT22;30625;52.206;21.030;2024-01-30T09:29:17;6.60;99.40
44894;DHT22;30625;52.206;21.030;2024-01-30T09:31:43;6.80;98.60
44894;DHT22;30625;52.206;21.030;2024-01-30T09:34:09;6.80;98.90
44894;DHT22;30625;52.206;21.030;2024-01-30T09:36:35;7.00;98.70
44894;DHT22;30625;52.206;21.030;2024-01-30T09:39:00;7.50;98.10
44894;DHT22;30625;52.206;21.030;2024-01-30T09:41:26;8.00;97.40
44894;DHT22;30625;52.206;21.030;2024-01-30T09:43:54;7.80;96.80
44894;DHT22;30625;52.206;21.030;2024-01-30T09:46:21;7.60;97.10
44894;DHT22;30625;52.206;21.030;2024-01-30T09:48:47;8.10;96.80
44894;DHT22;30625;52.206;21.030;2024-01-30T09:51:14;8.60;95.50
44894;DHT22;30625;52.206;21.030;2024-01-30T09:53:41;9.00;94.90
44894;DHT22;30625;52.206;21.030;2024-01-30T09:56:07;9.30;94.30
44894;DHT22;30625;52.206;21.030;2024-01-30T09:58:33;9.00;93.60
44894;DHT22;30625;52.206;21.030;2024-01-30T10:00:59;9.00;93.70
44894;DHT22;30625;52.206;21.030;2024-01-30T10:03:25;9.30;93.70
44894;DHT22;30625;52.206;21.030;2024-01-30T10:05:52;9.80;92.70
44894;DHT22;30625;52.206;21.030;2024-01-30T10:08:18;10.30;92.00
44894;DHT22;30625;52.206;21.030;2024-01-30T10:10:47;10.60;91.00
44894;DHT22;30625;52.206;21.030;2024-01-30T10:13:12;10.40;91.10
44894;DHT22;30625;52.206;21.030;2024-01-30T10:15:38;9.80;91.40
44894;DHT22;30625;52.206;21.030;2024-01-30T10:18:04;9.60;91.50
44894;DHT22;30625;52.206;21.030;2024-01-30T10:20:32;9.80;91.70
44894;DHT22;30625;52.206;21.030;2024-01-30T10:22:57;9.90;91.30
44894;DHT22;30625;52.206;21.030;2024-01-30T10:25:23;9.60;92.00
44894;DHT22;30625;52.206;21.030;2024-01-30T10:27:53;9.50;91.40
44894;DHT22;30625;52.206;21.030;2024-01-30T10:30:19;9.20;91.90
44894;DHT22;30625;52.206;21.030;2024-01-30T10:32:45;9.00;92.00
44894;DHT22;30625;52.206;21.030;2024-01-30T10:35:10;8.90;92.50
44894;DHT22;30625;52.206;21.030;2024-01-30T10:37:36;8.90;92.30
44894;DHT22;30625;52.206;21.030;2024-01-30T10:40:02;8.80;92.10
44894;DHT22;30625;52.206;21.030;2024-01-30T10:42:31;8.60;92.20
44894;DHT22;30625;52.206;21.030;2024-01-30T10:45:07;8.60;92.50
44894;DHT22;30625;52.206;21.030;2024-01-30T10:47:43;8.60;92.50
44894;DHT22;30625;52.206;21.030;2024-01-30T10:50:09;8.50;93.40
44894;DHT22;30625;52.206;21.030;2024-01-30T10:52:36;8.60;93.10
44894;DHT22;30625;52.206;21.030;2024-01-30T10:55:01;8.50;92.60
44894;DHT22;30625;52.206;21.030;2024-01-30T10:57:30;8.50;92.90
44894;DHT22;30625;52.206;21.030;2024-01-30T10:59:56;8.60;92.60
44894;DHT22;30625;52.206;21.030;2024-01-30T11:02:23;8.70;92.60
44894;DHT22;30625;52.206;21.030;2024-01-30T11:04:58;8.80;92.70
44894;DHT22;30625;52.206;21.030;2024-01-30T11:07:24;9.20;91.90
44894;DHT22;30625;52.206;21.030;2024-01-30T11:12:16;9.20;91.60
44894;DHT22;30625;52.206;21.030;2024-01-30T11:14:42;9.00;91.60
44894;DHT22;30625;52.206;21.030;2024-01-30T11:17:09;9.00;91.80
44894;DHT22;30625;52.206;21.030;2024-01-30T11:19:37;8.70;92.20
44894;DHT22;30625;52.206;21.030;2024-01-30T11:22:03;8.70;92.10
44894;DHT22;30625;52.206;21.030;2024-01-30T11:24:30;8.60;92.30
44894;DHT22;30625;52.206;21.030;2024-01-30T11:26:55;8.40;92.50
44894;DHT22;30625;52.206;21.030;2024-01-30T11:29:29;8.40;92.70
44894;DHT22;30625;52.206;21.030;2024-01-30T11:31:55;8.40;92.50
44894;DHT22;30625;52.206;21.030;2024-01-30T11:34:24;8.40;92.50
44894;DHT22;30625;52.206;21.030;2024-01-30T11:36:57;8.40;92.60
44894;DHT22;30625;52.206;21.030;2024-01-30T11:39:27;8.30;92.80
44894;DHT22;30625;52.206;21.030;2024-01-30T11:41:54;8.50;92.20
44894;DHT22;30625;52.206;21.030;2024-01-30T11:44:20;8.60;92.40
44894;DHT22;30625;52.206;21.030;2024-01-30T11:46:50;8.60;92.30
44894;DHT22;30625;52.206;21.030;2024-01-30T11:49:16;8.70;92.80
44894;DHT22;30625;52.206;21.030;2024-01-30T11:51:42;8.80;92.40
44894;DHT22;30625;52.206;21.030;2024-01-30T11:54:09;8.90;91.90
44894;DHT22;30625;52.206;21.030;2024-01-30T11:56:36;8.80;91.80
44894;DHT22;30625;52.206;21.030;2024-01-30T11:59:02;8.80;91.80
44894;DHT22;30625;52.206;21.030;2024-01-30T12:01:29;8.70;92.10
44894;DHT22;30625;52.206;21.030;2024-01-30T12:03:55;8.80;92.30
44894;DHT22;30625;52.206;21.030;2024-01-30T12:06:22;8.90;92.00
44894;DHT22;30625;52.206;21.030;2024-01-30T12:11:24;8.80;92.50
44894;DHT22;30625;52.206;21.030;2024-01-30T12:13:51;8.80;92.10
44894;DHT22;30625;52.206;21.030;2024-01-30T12:16:19;8.90;92.00
44894;DHT22;30625;52.206;21.030;2024-01-30T12:18:45;9.00;91.70
44894;DHT22;30625;52.206;21.030;2024-01-30T12:21:11;9.10;91.50
44894;DHT22;30625;52.206;21.030;2024-01-30T12:23:36;9.30;91.60
44894;DHT22;30625;52.206;21.030;2024-01-30T12:26:02;9.30;91.50
44894;DHT22;30625;52.206;21.030;2024-01-30T12:28:32;9.40;91.10
44894;DHT22;30625;52.206;21.030;2024-01-30T12:31:07;9.40;91.10
44894;DHT22;30625;52.206;21.030;2024-01-30T12:33:35;9.50;91.40
44894;DHT22;30625;52.206;21.030;2024-01-30T12:36:01;9.50;91.20
44894;DHT22;30625;52.206;21.030;2024-01-30T12:38:28;9.50;91.10
44894;DHT22;30625;52.206;21.030;2024-01-30T12:40:54;9.30;90.80
44894;DHT22;30625;52.206;21.030;2024-01-30T12:43:21;9.20;91.20
44894;DHT22;30625;52.206;21.030;2024-01-30T12:45:47;9.20;91.80
44894;DHT22;30625;52.206;21.030;2024-01-30T12:48:12;9.20;91.60
44894;DHT22;30625;52.206;21.030;2024-01-30T12:50:38;9.30;91.70
44894;DHT22;30625;52.206;21.030;2024-01-30T12:53:04;9.30;91.10
44894;DHT22;30625;52.206;21.030;2024-01-30T12:55:31;9.30;91.10
44894;DHT22;30625;52.206;21.030;2024-01-30T12:57:56;9.20;90.80
44894;DHT22;30625;52.206;21.030;2024-01-30T13:00:22;9.00;91.10
44894;DHT22;30625;52.206;21.030;2024-01-30T13:02:48;8.90;91.20
44894;DHT22;30625;52.206;21.030;2024-01-30T13:05:15;8.80;91.40
44894;DHT22;30625;52.206;21.030;2024-01-30T13:07:40;8.80;91.90
44894;DHT22;30625;52.206;21.030;2024-01-30T13:10:06;8.70;92.10
44894;DHT22;30625;52.206;21.030;2024-01-30T13:12:31;8.70;92.00
44894;DHT22;30625;52.206;21.030;2024-01-30T13:15:00;8.70;91.90
44894;DHT22;30625;52.206;21.030;2024-01-30T13:17:26;8.80;92.30
44894;DHT22;30625;52.206;21.030;2024-01-30T13:19:52;8.70;92.90
44894;DHT22;30625;52.206;21.030;2024-01-30T13:22:19;8.80;93.10
44894;DHT22;30625;52.206;21.030;2024-01-30T13:24:47;8.80;91.80
44894;DHT22;30625;52.206;21.030;2024-01-30T13:27:12;8.70;92.30
44894;DHT22;30625;52.206;21.030;2024-01-30T13:29:38;8.60;92.20
44894;DHT22;30625;52.206;21.030;2024-01-30T13:32:03;8.60;92.10
44894;DHT22;30625;52.206;21.030;2024-01-30T13:34:29;8.60;92.00
44894;DHT22;30625;52.206;21.030;2024-01-30T13:36:56;8.50;92.10
44894;DHT22;30625;52.206;21.030;2024-01-30T13:39:22;8.50;92.40
44894;DHT22;30625;52.206;21.030;2024-01-30T13:41:48;8.50;92.10
44894;DHT22;30625;52.206;21.030;2024-01-30T13:44:14;8.50;92.10
44894;DHT22;30625;52.206;21.030;2024-01-30T13:46:41;8.60;92.40
44894;DHT22;30625;52.206;21.030;2024-01-30T13:49:07;8.60;92.30
44894;DHT22;30625;52.206;21.030;2024-01-30T13:51:33;8.70;92.20
44894;DHT22;30625;52.206;21.030;2024-01-30T13:53:58;8.60;92.30
44894;DHT22;30625;52.206;21.030;2024-01-30T13:56:23;8.60;92.10
44894;DHT22;30625;52.206;21.030;2024-01-30T13:58:50;8.60;91.80
44894;DHT22;30625;52.206;21.030;2024-01-30T14:01:15;8.60;91.80
44894;DHT22;30625;52.206;21.030;2024-01-30T14:03:41;8.60;91.90
44894;DHT22;30625;52.206;21.030;2024-01-30T14:06:07;8.60;91.60
44894;DHT22;30625;52.206;21.030;2024-01-30T14:08:32;8.60;91.60
44894;DHT22;30625;52.206;21.030;2024-01-30T14:10:58;8.50;91.90
44894;DHT22;30625;52.206;21.030;2024-01-30T14:13:23;8.50;91.70
44894;DHT22;30625;52.206;21.030;2024-01-30T14:15:53;8.40;91.90
44894;DHT22;30625;52.206;21.030;2024-01-30T14:18:19;8.40;92.40
44894;DHT22;30625;52.206;21.030;2024-01-30T14:20:46;8.30;92.20
44894;DHT22;30625;52.206;21.030;2024-01-30T14:23:11;8.20;92.60
44894;DHT22;30625;52.206;21.030;2024-01-30T14:25:37;8.20;92.60
44894;DHT22;30625;52.206;21.030;2024-01-30T14:28:02;8.10;92.60
44894;DHT22;30625;52.206;21.030;2024-01-30T14:30:28;8.00;92.90
44894;DHT22;30625;52.206;21.030;2024-01-30T14:32:54;7.90;93.00
44894;DHT22;30625;52.206;21.030;2024-01-30T14:35:20;8.00;92.90
44894;DHT22;30625;52.206;21.030;2024-01-30T14:37:46;7.90;92.90
44894;DHT22;30625;52.206;21.030;2024-01-30T14:40:11;7.80;93.20
44894;DHT22;30625;52.206;21.030;2024-01-30T14:42:37;7.80;93.50
44894;DHT22;30625;52.206;21.030;2024-01-30T14:45:05;7.70;93.60
44894;DHT22;30625;52.206;21.030;2024-01-30T14:47:31;7.70;93.60
44894;DHT22;30625;52.206;21.030;2024-01-30T14:49:57;7.60;93.60
44894;DHT22;30625;52.206;21.030;2024-01-30T14:52:26;7.60;94.00
44894;DHT22;30625;52.206;21.030;2024-01-30T14:54:52;7.50;94.20
44894;DHT22;30625;52.206;21.030;2024-01-30T14:57:18;7.50;93.90
44894;DHT22;30625;52.206;21.030;2024-01-30T14:59:44;7.50;94.00
44894;DHT22;30625;52.206;21.030;2024-01-30T15:02:10;7.40;94.40
44894;DHT22;30625;52.206;21.030;2024-01-30T15:04:36;7.30;94.70
44894;DHT22;30625;52.206;21.030;2024-01-30T15:07:02;7.30;94.40
44894;DHT22;30625;52.206;21.030;2024-01-30T15:09:27;7.30;94.50
44894;DHT22;30625;52.206;21.030;2024-01-30T15:11:53;7.20;94.70
44894;DHT22;30625;52.206;21.030;2024-01-30T15:14:18;7.10;95.00
44894;DHT22;30625;52.206;21.030;2024-01-30T15:16:44;7.00;95.10
44894;DHT22;30625;52.206;21.030;2024-01-30T15:19:10;7.00;95.10
44894;DHT22;30625;52.206;21.030;2024-01-30T15:21:35;6.90;95.10
44894;DHT22;30625;52.206;21.030;2024-01-30T15:24:01;6.90;95.30
44894;DHT22;30625;52.206;21.030;2024-01-30T15:26:27;6.80;95.10
44894;DHT22;30625;52.206;21.030;2024-01-30T15:28:53;6.90;95.20